Time;durP1;ratioP1;P1;durP2;ratioP2;P2;SDS_P1;SDS_P2;PMS_P1;PMS_P2;Temp;Humidity;BMP_temperature;BMP_pressure;BME280_temperature;BME280_humidity;BME280_pressure;Samples;Min_cycle;Max_cycle;Signal;HPM_P1;HPM_P2
2021/04/02 00:01:09;;;;;;;5.45;2.30;;;;;;;;;;3622454;39;20415;-70
2021/04/02 00:03:36;;;;;;;6.50;1.85;;;;;;;;;;3625703;39;20818;-70
2021/04/02 00:06:04;;;;;;;5.32;2.10;;;;;;;;;;3627134;39;20410;-69
2021/04/02 00:08:30;;;;;;;4.43;1.70;;;;;;;;;;3623821;39;20409;-70
2021/04/02 00:10:58;;;;;;;3.95;1.92;;;;;;;;;;3618641;39;20422;-69
2021/04/02 00:13:25;;;;;;;4.32;1.80;;;;;;;;;;3627142;39;20454;-69
2021/04/02 00:15:52;;;;;;;6.88;1.80;;;;;;;;;;3616409;39;20424;-69
2021/04/02 00:18:19;;;;;;;3.10;1.63;;;;;;;;;;3622371;39;20547;-70
2021/04/02 00:20:45;;;;;;;2.90;1.85;;;;;;;;;;3616776;39;20506;-69
2021/04/02 00:23:12;;;;;;;5.10;1.55;;;;;;;;;;3614831;39;20431;-71
2021/04/02 00:25:38;;;;;;;5.53;1.70;;;;;;;;;;3617568;39;20895;-69
2021/04/02 00:28:05;;;;;;;5.05;1.92;;;;;;;;;;3622473;39;20456;-69
2021/04/02 00:30:34;;;;;;;3.90;1.80;;;;;;;;;;3625843;39;20453;-69
2021/04/02 00:33:00;;;;;;;4.40;1.80;;;;;;;;;;3617254;39;20522;-69
2021/04/02 00:35:27;;;;;;;5.38;1.83;;;;;;;;;;3623986;39;20751;-69
2021/04/02 00:37:53;;;;;;;5.00;1.65;;;;;;;;;;3616928;39;20408;-70
2021/04/02 00:40:20;;;;;;;5.35;1.63;;;;;;;;;;3622185;39;20497;-70
2021/04/02 00:42:47;;;;;;;4.33;1.83;;;;;;;;;;3623550;39;20755;-70
2021/04/02 00:45:14;;;;;;;3.28;1.50;;;;;;;;;;3623040;39;20426;-69
2021/04/02 00:47:41;;;;;;;4.30;1.63;;;;;;;;;;3624965;39;20760;-69
2021/04/02 00:50:12;;;;;;;4.45;1.67;;;;;;;;;;3623129;39;20446;-69
2021/04/02 00:52:39;;;;;;;5.53;2.05;;;;;;;;;;3617950;39;20428;-69
2021/04/02 00:55:06;;;;;;;3.60;1.85;;;;;;;;;;3622316;39;20419;-70
2021/04/02 00:57:32;;;;;;;3.15;1.20;;;;;;;;;;3620259;39;20424;-70
2021/04/02 00:59:58;;;;;;;4.18;1.60;;;;;;;;;;3622220;39;20423;-70
2021/04/02 01:04:53;;;;;;;3.88;1.52;;;;;;;;;;3594351;40;20447;-75
2021/04/02 01:07:19;;;;;;;4.03;1.33;;;;;;;;;;3586748;40;20874;-74
2021/04/02 01:09:46;;;;;;;4.03;1.67;;;;;;;;;;3596064;40;20408;-74
2021/04/02 01:12:13;;;;;;;4.47;1.48;;;;;;;;;;3596293;40;20450;-74
2021/04/02 01:14:39;;;;;;;3.78;1.63;;;;;;;;;;3595298;40;20393;-74
2021/04/02 01:17:06;;;;;;;2.60;1.50;;;;;;;;;;3593032;40;20420;-74
2021/04/02 01:19:36;;;;;;;7.38;1.90;;;;;;;;;;3596468;40;20459;-74
2021/04/02 01:22:04;;;;;;;3.58;1.25;;;;;;;;;;3589844;40;20855;-74
2021/04/02 01:24:35;;;;;;;4.10;1.52;;;;;;;;;;3594921;40;20651;-75
2021/04/02 01:27:14;;;;;;;3.38;1.55;;;;;;;;;;3575281;40;20420;-74
2021/04/02 01:29:45;;;;;;;4.60;1.20;;;;;;;;;;3559373;40;20421;-75
2021/04/02 01:32:14;;;;;;;5.10;1.52;;;;;;;;;;3551564;40;20423;-74
2021/04/02 01:34:42;;;;;;;3.47;1.30;;;;;;;;;;3558965;40;20457;-77
2021/04/02 01:37:10;;;;;;;4.00;1.58;;;;;;;;;;3554525;40;20510;-74
2021/04/02 01:39:39;;;;;;;3.77;1.40;;;;;;;;;;3554089;40;20426;-74
2021/04/02 01:42:06;;;;;;;3.67;1.27;;;;;;;;;;3554558;40;20435;-74
2021/04/02 01:44:34;;;;;;;6.07;1.47;;;;;;;;;;3554608;40;20513;-75
2021/04/02 01:47:02;;;;;;;3.65;1.42;;;;;;;;;;3562286;40;20907;-74
2021/04/02 01:49:29;;;;;;;3.20;1.50;;;;;;;;;;3554441;40;20461;-74
2021/04/02 01:51:56;;;;;;;4.63;1.33;;;;;;;;;;3550495;40;20766;-74
2021/04/02 01:54:22;;;;;;;4.60;1.30;;;;;;;;;;3556746;40;20430;-74
2021/04/02 01:56:50;;;;;;;6.00;1.48;;;;;;;;;;3557194;40;20547;-74
2021/04/02 01:59:17;;;;;;;5.57;1.70;;;;;;;;;;3574532;40;20427;-75
2021/04/02 02:01:44;;;;;;;4.07;1.20;;;;;;;;;;3594055;40;20454;-75
2021/04/02 02:04:11;;;;;;;3.80;1.40;;;;;;;;;;3584519;40;20527;-74
2021/04/02 02:06:38;;;;;;;4.30;1.30;;;;;;;;;;3583852;40;20720;-74
2021/04/02 02:09:08;;;;;;;2.35;1.40;;;;;;;;;;3576430;40;20550;-75
2021/04/02 02:11:35;;;;;;;4.00;1.42;;;;;;;;;;3575083;40;20435;-74
2021/04/02 02:14:08;;;;;;;3.95;1.67;;;;;;;;;;3583196;40;20415;-74
2021/04/02 02:16:34;;;;;;;4.85;1.38;;;;;;;;;;3583706;40;20522;-74
2021/04/02 02:19:01;;;;;;;3.47;1.52;;;;;;;;;;3583513;40;20508;-75
2021/04/02 02:21:29;;;;;;;4.15;1.33;;;26.70;30.00;;;;;;3571808;40;20429;-75
2021/04/02 02:23:55;;;;;;;3.30;1.30;;;;;;;;;;3573313;40;20518;-71
2021/04/02 02:26:22;;;;;;;3.17;1.27;;;;;;;;;;3576151;40;20517;-75
2021/04/02 02:28:48;;;;;;;5.57;1.50;;;;;;;;;;3585751;40;20428;-74
2021/04/02 02:31:14;;;;;;;5.47;1.40;;;;;;;;;;3579991;40;20760;-73
2021/04/02 02:33:41;;;;;;;8.27;1.85;;;;;;;;;;3584824;40;20766;-73
2021/04/02 02:36:07;;;;;;;4.43;1.40;;;;;;;;;;3575930;40;20541;-75
2021/04/02 02:38:35;;;;;;;5.70;1.70;;;;;;;;;;3570792;40;20550;-73
2021/04/02 02:41:01;;;;;;;10.73;1.77;;;;;;;;;;3583132;40;20634;-73
2021/04/02 02:43:28;;;;;;;2.58;1.40;;;;;;;;;;3584830;40;20463;-73
2021/04/02 02:45:54;;;;;;;5.60;1.50;;;;;;;;;;3585406;40;20462;-73
2021/04/02 02:48:20;;;;;;;4.03;1.65;;;;;;;;;;3585413;40;20499;-72
2021/04/02 02:50:47;;;;;;;4.97;1.60;;;;;;;;;;3573321;40;20414;-73
2021/04/02 02:53:15;;;;;;;4.82;1.83;;;;;;;;;;3572501;40;20434;-78
2021/04/02 02:55:45;;;;;;;4.30;1.50;;;;;;;;;;3583757;40;20421;-73
2021/04/02 02:58:13;;;;;;;3.13;1.43;;;;;;;;;;3575491;40;20519;-73
2021/04/02 03:00:40;;;;;;;5.65;1.70;;;;;;;;;;3585276;40;20439;-73
2021/04/02 03:03:08;;;;;;;5.20;1.63;;;;;;;;;;3573780;40;20540;-72
2021/04/02 03:05:34;;;;;;;5.28;1.50;;;;;;;;;;3581941;40;20457;-73
2021/04/02 03:08:03;;;;;;;3.58;1.60;;;;;;;;;;3577265;40;20419;-73
2021/04/02 03:10:30;;;;;;;6.85;2.22;;;;;;;;;;3578914;40;20447;-74
2021/04/02 03:12:57;;;;;;;5.20;1.55;;;;;;;;;;3575474;40;20396;-73
2021/04/02 03:15:24;;;;;;;4.00;1.80;;;;;;;;;;3578616;40;20460;-72
2021/04/02 03:17:52;;;;;;;6.00;1.77;;;;;;;;;;3585239;40;20430;-73
2021/04/02 03:20:19;;;;;;;6.75;1.80;;;;;;;;;;3582806;40;20822;-73
2021/04/02 03:22:45;;;;;;;3.65;1.63;;;;;;;;;;3575655;40;20410;-73
2021/04/02 03:25:13;;;;;;;4.32;1.55;;;;;;;;;;3569976;40;20526;-73
2021/04/02 03:27:40;;;;;;;4.65;1.83;;;;;;;;;;3582059;40;20446;-72
2021/04/02 03:30:08;;;;;;;3.78;1.58;;;;;;;;;;3580686;40;20472;-73
2021/04/02 03:32:35;;;;;;;6.47;1.80;;;;;;;;;;3576038;40;20429;-72
2021/04/02 03:35:02;;;;;;;5.38;1.65;;;;;;;;;;3575706;40;20435;-72
2021/04/02 03:37:32;;;;;;;4.53;2.03;;;;;;;;;;3581235;40;21044;-72
2021/04/02 03:40:00;;;;;;;6.15;1.70;;;;;;;;;;3572481;40;20619;-72
2021/04/02 03:42:26;;;;;;;4.77;1.83;;;;;;;;;;3568798;40;20756;-73
2021/04/02 03:44:53;;;;;;;7.07;1.65;;;;;;;;;;3581461;40;20429;-73
2021/04/02 03:47:21;;;;;;;5.97;1.80;;;;;;;;;;3580256;40;20434;-73
2021/04/02 03:49:48;;;;;;;7.70;1.70;;;;;;;;;;3580148;40;20441;-72
2021/04/02 03:52:16;;;;;;;3.67;1.58;;;;;;;;;;3576426;40;20437;-73
2021/04/02 03:54:43;;;;;;;4.00;1.55;;;;;;;;;;3584699;40;20484;-72
2021/04/02 03:57:12;;;;;;;3.20;1.30;;;;;;;;;;3585822;40;20441;-72
2021/04/02 03:59:39;;;;;;;6.18;1.73;;;;;;;;;;3581789;40;20425;-74
2021/04/02 04:02:06;;;;;;;5.68;1.63;;;;;;;;;;3575374;40;20521;-74
2021/04/02 04:04:34;;;;;;;8.75;1.77;;;;;;;;;;3575830;40;20430;-73
2021/04/02 04:07:02;;;;;;;6.75;1.40;;;;;;;;;;3586407;40;20507;-73
2021/04/02 04:09:29;;;;;;;4.72;2.00;;;;;;;;;;3579878;40;20507;-73
2021/04/02 04:11:56;;;;;;;6.32;1.77;;;;;;;;;;3576839;40;20418;-72
2021/04/02 04:14:22;;;;;;;10.80;2.40;;;;;;;;;;3575097;40;20439;-72
2021/04/02 04:16:49;;;;;;;4.53;2.30;;;;;;;;;;3581493;40;20650;-74
2021/04/02 04:19:16;;;;;;;4.32;1.58;;;;;;;;;;3582899;40;20400;-72
2021/04/02 04:21:45;;;;;;;5.35;2.00;;;;;;;;;;3585335;40;20416;-73
2021/04/02 04:24:13;;;;;;;6.75;1.92;;;;;;;;;;3576189;40;20407;-73
2021/04/02 04:26:40;;;;;;;4.15;1.35;;;;;;;;;;3585097;40;20432;-73
2021/04/02 04:29:07;;;;;;;5.90;1.50;;;;;;;;;;3575485;40;20457;-73
2021/04/02 04:31:33;;;;;;;6.70;1.77;;;;;;;;;;3585827;40;20762;-72
2021/04/02 04:34:01;;;;;;;4.45;1.63;;;;;;;;;;3581573;40;20423;-72
2021/04/02 04:36:29;;;;;;;6.35;1.65;;;;;;;;;;3586455;40;20758;-73
2021/04/02 04:38:56;;;;;;;12.52;2.25;;;;;;;;;;3573857;40;20505;-73
2021/04/02 04:41:24;;;;;;;5.43;1.40;;;;;;;;;;3586289;40;20398;-73
2021/04/02 04:43:50;;;;;;;6.55;1.70;;;;;;;;;;3576102;40;20422;-74
2021/04/02 04:46:17;;;;;;;5.32;1.63;;;;;;;;;;3576402;40;20509;-72
2021/04/02 04:48:43;;;;;;;5.88;1.48;;;;;;;;;;3585966;40;20936;-73
2021/04/02 04:51:10;;;;;;;6.38;1.83;;;;;;;;;;3586333;40;20414;-74
2021/04/02 04:53:38;;;;;;;7.25;1.40;;;;;;;;;;3586039;40;20417;-73
2021/04/02 04:56:06;;;;;;;6.47;1.67;;;;;;;;;;3574760;40;20420;-72
2021/04/02 04:58:34;;;;;;;4.88;1.80;;;;;;;;;;3576365;40;20523;-72
2021/04/02 05:01:02;;;;;;;5.93;1.40;;;;;;;;;;3573691;40;20408;-73
2021/04/02 05:03:29;;;;;;;4.73;1.60;;;;;;;;;;3580185;40;20430;-73
2021/04/02 05:05:56;;;;;;;5.25;1.33;;;;;;;;;;3573285;40;20426;-72
2021/04/02 05:08:24;;;;;;;4.30;1.35;;;;;;;;;;3576780;40;20417;-72
2021/04/02 05:10:52;;;;;;;3.33;1.60;;;;;;;;;;3573538;40;20510;-73
2021/04/02 05:13:21;;;;;;;3.13;1.40;;;;;;;;;;3577567;40;20434;-73
2021/04/02 05:15:48;;;;;;;5.25;1.45;;;;;;;;;;3579864;40;20418;-72
2021/04/02 05:18:14;;;;;;;3.50;1.40;;;;;;;;;;3577940;40;20413;-73
2021/04/02 05:20:41;;;;;;;4.22;1.25;;;;;;;;;;3581235;40;20406;-73
2021/04/02 05:23:07;;;;;;;6.53;1.60;;;;;;;;;;3585660;40;20750;-73
2021/04/02 05:25:33;;;;;;;5.68;1.67;;;;;;;;;;3574699;40;20893;-73
2021/04/02 05:28:00;;;;;;;3.73;1.60;;;;;;;;;;3580757;40;20404;-73
2021/04/02 05:30:27;;;;;;;4.45;1.20;;;;;;;;;;3579000;40;20435;-73
2021/04/02 05:32:53;;;;;;;4.72;1.40;;;;;;;;;;3583696;40;20659;-73
2021/04/02 05:35:20;;;;;;;4.75;1.27;;;;;;;;;;3581334;40;20513;-73
2021/04/02 05:37:46;;;;;;;6.47;1.48;;;;;;;;;;3584812;40;20400;-73
2021/04/02 05:40:13;;;;;;;4.65;1.67;;;;;;;;;;3585968;40;20398;-73
2021/04/02 05:42:41;;;;;;;4.93;1.63;;;;;;;;;;3581095;40;20441;-73
2021/04/02 05:45:08;;;;;;;7.72;1.40;;;;;;;;;;3579246;40;20730;-73
2021/04/02 05:47:36;;;;;;;9.80;1.88;;;;;;;;;;3584543;40;20824;-73
2021/04/02 05:50:02;;;;;;;10.40;2.10;;;;;;;;;;3575785;40;20763;-73
2021/04/02 05:52:30;;;;;;;6.05;1.30;;;;;;;;;;3576449;40;20521;-73
2021/04/02 05:54:58;;;;;;;9.00;1.80;;;;;;;;;;3576469;40;20437;-73
2021/04/02 05:57:25;;;;;;;3.23;1.40;;;;;;;;;;3580641;40;20522;-73
2021/04/02 05:59:51;;;;;;;6.55;1.50;;;;;;;;;;3574682;40;20410;-73
2021/04/02 06:02:17;;;;;;;2.95;1.40;;;;;;;;;;3576418;40;20417;-73
2021/04/02 06:04:45;;;;;;;6.10;1.60;;;;;;;;;;3585166;40;20434;-73
2021/04/02 06:07:11;;;;;;;5.95;1.70;;;;;;;;;;3583922;40;20433;-72
2021/04/02 06:09:37;;;;;;;5.32;1.42;;;;;;;;;;3582605;40;20418;-73
2021/04/02 06:12:04;;;;;;;5.20;0.98;;;;;;;;;;3578266;40;20422;-74
2021/04/02 06:14:30;;;;;;;4.72;1.10;;;;;;;;;;3585305;40;20765;-73
2021/04/02 06:16:56;;;;;;;4.60;1.70;;;;;;;;;;3585853;40;20482;-73
2021/04/02 06:19:23;;;;;;;4.68;1.80;;;;;;;;;;3585554;40;20751;-73
2021/04/02 06:21:52;;;;;;;9.10;2.00;;;;;;;;;;3576203;40;20762;-73
2021/04/02 06:24:34;;;;;;;7.27;1.87;;;;;;;;;;3578247;40;20801;-73
2021/04/02 06:27:01;;;;;;;5.32;1.48;;;;;;;;;;3582994;40;20413;-73
2021/04/02 06:29:28;;;;;;;11.05;1.83;;;;;;;;;;3579972;40;20423;-73
2021/04/02 06:31:54;;;;;;;5.22;1.50;;;;;;;;;;3584539;40;20436;-73
2021/04/02 06:34:20;;;;;;;2.95;1.17;;;;;;;;;;3576152;40;20422;-73
2021/04/02 06:36:48;;;;;;;5.93;1.48;;;;;;;;;;3585721;40;20504;-74
2021/04/02 06:39:16;;;;;;;5.73;1.20;;;;;;;;;;3576133;40;20433;-75
2021/04/02 06:41:42;;;;;;;4.85;1.20;;;;;;;;;;3583338;40;20755;-72
2021/04/02 06:44:11;;;;;;;4.15;1.10;;;;;;;;;;3575521;40;20627;-73
2021/04/02 06:46:39;;;;;;;4.45;1.35;;;;;;;;;;3572989;40;20418;-73
2021/04/02 06:49:09;;;;;;;4.53;1.20;;;;;;;;;;3584475;40;20474;-76
2021/04/02 06:51:36;;;;;;;3.27;1.53;;;;;;;;;;3575004;40;20736;-73
2021/04/02 06:54:04;;;;;;;4.45;1.10;;;;;;;;;;3574740;40;20468;-73
2021/04/02 06:56:31;;;;;;;3.63;1.27;;;;;;;;;;3568537;40;20430;-73
2021/04/02 06:58:59;;;;;;;6.18;1.48;;;;;;;;;;3568938;40;20508;-72
2021/04/02 07:01:27;;;;;;;5.17;1.37;;;;;;;;;;3575118;40;20437;-72
2021/04/02 07:03:54;;;;;;;3.60;0.98;;;;;;;;;;3583873;40;20410;-73
2021/04/02 07:06:21;;;;;;;3.28;1.10;;;;;;;;;;3585203;40;20496;-72
2021/04/02 07:08:48;;;;;;;7.20;1.58;;;;;;;;;;3574388;40;20580;-73
2021/04/02 07:11:16;;;;;;;7.95;1.45;;;18.40;47.00;;;;;;3573031;40;20419;-73
2021/04/02 07:13:48;;;;;;;3.97;1.17;;;18.50;45.80;;;;;;3575675;40;20409;-73
2021/04/02 07:16:15;;;;;;;8.10;1.55;;;18.50;46.30;;;;;;3581688;40;20501;-73
2021/04/02 07:18:42;;;;;;;6.40;1.48;;;18.50;45.60;;;;;;3578686;40;20486;-74
2021/04/02 07:21:08;;;;;;;5.38;1.48;;;;;;;;;;3585467;40;20405;-73
2021/04/02 07:23:35;;;;;;;6.55;1.30;;;;;;;;;;3577920;40;20416;-73
2021/04/02 07:26:01;;;;;;;4.60;1.20;;;;;;;;;;3585775;40;20400;-74
2021/04/02 07:28:29;;;;;;;5.68;1.73;;;18.60;45.20;;;;;;3580553;40;20418;-73
2021/04/02 07:30:57;;;;;;;5.60;1.40;;;18.90;45.00;;;;;;3571755;40;20422;-72
2021/04/02 07:33:24;;;;;;;5.28;2.00;;;19.00;45.10;;;;;;3580950;40;20410;-75
2021/04/02 07:36:02;;;;;;;5.10;1.67;;;19.10;44.90;;;;;;3575795;40;20406;-74
2021/04/02 07:38:29;;;;;;;8.38;1.65;;;;;;;;;;3586368;40;20417;-73
2021/04/02 07:40:55;;;;;;;4.82;1.30;;;;;;;;;;3584283;40;20414;-73
2021/04/02 07:43:22;;;;;;;7.80;1.90;;;;;;;;;;3574354;40;20522;-74
2021/04/02 07:45:52;;;;;;;4.82;1.20;;;;;;;;;;3580755;40;20476;-73
2021/04/02 07:48:24;;;;;;;6.45;1.20;;;;;;;;;;3582925;40;20416;-74
2021/04/02 07:50:52;;;;;;;6.55;1.15;;;;;;;;;;3586260;40;20398;-73
2021/04/02 07:53:19;;;;;;;6.05;1.63;;;;;;;;;;3574579;40;20789;-73
2021/04/02 07:55:55;;;;;;;3.25;1.30;;;;;;;;;;3579914;40;20544;-73
2021/04/02 07:58:25;;;;;;;6.45;1.60;;;;;;;;;;3582482;40;20423;-74
2021/04/02 08:00:56;;;;;;;3.60;1.20;;;;;;;;;;3576494;40;20611;-74
2021/04/02 08:03:23;;;;;;;5.55;1.20;;;;;;;;;;3577035;40;20417;-73
2021/04/02 08:05:58;;;;;;;3.70;1.27;;;;;;;;;;3573726;40;20476;-73
2021/04/02 08:08:25;;;;;;;4.68;1.20;;;;;;;;;;3581933;40;20398;-73
2021/04/02 08:11:01;;;;;;;3.45;1.00;;;;;;;;;;3584398;40;20440;-74
2021/04/02 08:13:27;;;;;;;3.88;1.02;;;;;;;;;;3590776;40;20418;-74
2021/04/02 08:15:56;;;;;;;4.82;1.40;;;;;;;;;;3582903;40;20774;-73
2021/04/02 08:18:25;;;;;;;5.95;1.27;;;19.20;44.70;;;;;;3588928;40;20411;-73
2021/04/02 08:20:55;;;;;;;3.60;1.08;;;;;;;;;;3585249;40;20410;-73
2021/04/02 08:23:23;;;;;;;4.72;1.35;;;;;;;;;;3585064;40;20713;-73
2021/04/02 08:25:53;;;;;;;2.88;1.20;;;;;;;;;;3585074;40;20421;-73
2021/04/02 08:28:22;;;;;;;3.83;1.35;;;;;;;;;;3584749;40;20678;-73
2021/04/02 08:30:50;;;;;;;5.47;1.30;;;;;;;;;;3582816;40;20731;-74
2021/04/02 08:33:16;;;;;;;7.78;1.63;;;;;;;;;;3580787;40;20927;-74
2021/04/02 08:35:45;;;;;;;3.10;1.10;;;;;;;;;;3575008;40;20606;-73
2021/04/02 08:38:11;;;;;;;3.17;1.10;;;;;;;;;;3585091;40;20458;-74
2021/04/02 08:40:38;;;;;;;6.28;1.40;;;;;;;;;;3577078;40;20800;-74
2021/04/02 08:43:05;;;;;;;4.03;1.20;;;;;;;;;;3585390;40;20421;-74
2021/04/02 08:45:32;;;;;;;3.57;1.30;;;;;;;;;;3574553;40;20437;-74
2021/04/02 08:47:58;;;;;;;4.18;1.20;;;;;;;;;;3584599;40;20772;-73
2021/04/02 08:50:25;;;;;;;5.15;1.10;;;;;;;;;;3576025;40;20532;-73
2021/04/02 08:53:00;;;;;;;4.97;1.10;;;;;;;;;;3581247;40;20403;-75
2021/04/02 08:55:27;;;;;;;2.90;0.97;;;;;;;;;;3577481;40;20447;-73
2021/04/02 08:57:53;;;;;;;5.43;2.05;;;;;;;;;;3582535;40;20448;-74
2021/04/02 09:00:20;;;;;;;4.87;1.57;;;;;;;;;;3569754;40;20472;-73
2021/04/02 09:02:46;;;;;;;5.68;1.48;;;;;;;;;;3589835;40;20443;-75
2021/04/02 09:05:13;;;;;;;4.57;1.55;;;;;;;;;;3592006;40;20429;-73
2021/04/02 09:07:39;;;;;;;2.45;1.13;;;;;;;;;;3586193;40;20490;-74
2021/04/02 09:10:12;;;;;;;2.67;1.25;;;;;;;;;;3595684;40;20436;-73
2021/04/02 09:12:38;;;;;;;4.93;1.50;;;;;;;;;;3591156;40;20411;-75
2021/04/02 09:15:05;;;;;;;2.63;1.07;;;;;;;;;;3596734;40;20415;-75
2021/04/02 09:17:31;;;;;;;4.20;1.13;;;;;;;;;;3585664;40;20762;-73
2021/04/02 09:19:57;;;;;;;2.58;1.23;;;;;;;;;;3595062;40;20542;-73
2021/04/02 09:22:24;;;;;;;3.35;1.13;;;;;;;;;;3596948;40;20393;-74
2021/04/02 09:24:51;;;;;;;2.60;1.23;;;;;;;;;;3585303;40;20506;-74
2021/04/02 09:27:22;;;;;;;3.80;1.20;;;;;;;;;;3587120;40;20590;-73
2021/04/02 09:29:56;;;;;;;4.85;1.58;;;;;;;;;;3586728;40;20455;-74
2021/04/02 09:32:22;;;;;;;3.25;1.40;;;;;;;;;;3597018;40;20404;-73
2021/04/02 09:34:48;;;;;;;3.95;1.25;;;21.30;41.40;;;;;;3587172;40;20528;-74
2021/04/02 09:37:15;;;;;;;3.17;1.25;;;;;;;;;;3596718;40;20403;-73
2021/04/02 09:39:41;;;;;;;2.70;1.55;;;;;;;;;;3596800;40;20847;-76
2021/04/02 09:42:14;;;;;;;2.67;1.30;;;;;;;;;;3597004;40;20442;-74
2021/04/02 09:44:41;;;;;;;3.45;1.30;;;;;;;;;;3584797;40;20406;-73
2021/04/02 09:47:08;;;;;;;5.93;1.75;;;;;;;;;;3593604;40;20439;-74
2021/04/02 09:49:35;;;;;;;3.97;1.77;;;;;;;;;;3596021;40;20880;-74
2021/04/02 09:52:01;;;;;;;3.22;1.25;;;;;;;;;;3586124;40;20526;-74
2021/04/02 09:54:30;;;;;;;4.28;1.40;;;;;;;;;;3595189;40;20654;-75
2021/04/02 09:56:57;;;;;;;5.45;1.73;;;;;;;;;;3596755;40;20431;-74
2021/04/02 09:59:23;;;;;;;4.03;1.50;;;;;;;;;;3596553;40;20504;-74
2021/04/02 10:01:50;;;;;;;5.15;1.52;;;;;;;;;;3587008;39;20434;-76
2021/04/02 10:04:17;;;;;;;4.95;1.30;;;;;;;;;;3592016;40;20536;-75
2021/04/02 10:06:44;;;;;;;2.60;1.20;;;;;;;;;;3588617;40;20414;-73
2021/04/02 10:09:10;;;;;;;3.72;1.73;;;25.10;36.60;;;;;;3585086;40;20535;-75
2021/04/02 10:11:38;;;;;;;3.60;1.52;;;;;;;;;;3579612;40;20420;-73
2021/04/02 10:14:05;;;;;;;4.28;1.88;;;;;;;;;;3586881;40;20796;-74
2021/04/02 10:16:31;;;;;;;4.72;2.08;;;;;;;;;;3580882;40;20715;-73
2021/04/02 10:18:58;;;;;;;3.90;1.70;;;;;;;;;;3585262;40;20500;-73
2021/04/02 10:21:25;;;;;;;4.57;1.93;;;;;;;;;;3582556;40;20764;-73
2021/04/02 10:23:52;;;;;;;4.95;1.70;;;;;;;;;;3578755;40;20598;-73
2021/04/02 10:26:19;;;;;;;3.30;1.75;;;;;;;;;;3585022;40;20418;-74
2021/04/02 10:28:45;;;;;;;6.50;2.15;;;;;;;;;;3579212;40;20407;-74
2021/04/02 10:31:12;;;;;;;4.05;2.10;;;;;;;;;;3581094;40;20415;-73
2021/04/02 10:33:39;;;;;;;6.90;2.05;;;;;;;;;;3583339;40;20448;-74
2021/04/02 10:36:07;;;;;;;5.57;2.00;;;;;;;;;;3587222;40;20437;-75
2021/04/02 10:38:33;;;;;;;7.65;2.53;;;;;;;;;;3588259;40;20422;-73
2021/04/02 10:40:59;;;;;;;5.72;2.47;;;;;;;;;;3586449;40;20534;-74
2021/04/02 10:43:26;;;;;;;5.70;2.15;;;;;;;;;;3579571;40;20413;-73
2021/04/02 10:45:52;;;;;;;5.33;2.50;;;;;;;;;;3582741;40;20755;-73
2021/04/02 10:48:18;;;;;;;6.43;2.50;;;;;;;;;;3584475;40;20536;-73
2021/04/02 10:50:45;;;;;;;6.50;2.20;;;;;;;;;;3583738;40;20425;-74
2021/04/02 10:53:13;;;;;;;6.07;2.22;;;;;;;;;;3583199;40;20433;-73
2021/04/02 10:55:39;;;;;;;3.42;2.28;;;;;;;;;;3584403;40;20438;-73
2021/04/02 10:58:06;;;;;;;7.27;2.33;;;;;;;;;;3579837;40;20427;-73
2021/04/02 11:00:33;;;;;;;6.17;2.57;;;25.30;36.70;;;;;;3583961;40;20522;-73
2021/04/02 11:02:59;;;;;;;6.80;2.80;;;;;;;;;;3585284;40;20467;-73
2021/04/02 11:05:25;;;;;;;7.22;2.65;;;;;;;;;;3590416;40;20523;-75
2021/04/02 11:07:52;;;;;;;7.97;2.38;;;;;;;;;;3582635;40;20905;-73
2021/04/02 11:10:19;;;;;;;6.15;2.33;;;;;;;;;;3583909;40;20414;-73
2021/04/02 11:12:45;;;;;;;7.13;2.60;;;;;;;;;;3581306;40;20758;-74
2021/04/02 11:15:13;;;;;;;6.07;2.38;;;;;;;;;;3583240;40;20419;-75
2021/04/02 11:17:39;;;;;;;8.02;2.83;;;26.00;38.90;;;;;;3580974;40;20848;-75
2021/04/02 11:20:07;;;;;;;5.55;2.80;;;25.80;37.20;;;;;;3579498;40;20509;-73
2021/04/02 11:22:33;;;;;;;5.78;2.97;;;25.60;38.50;;;;;;3581182;40;20484;-74
2021/04/02 11:24:59;;;;;;;6.20;2.80;;;25.80;35.70;;;;;;3581278;40;20417;-75
2021/04/02 11:27:26;;;;;;;9.45;3.60;;;25.90;37.60;;;;;;3589096;40;20445;-74
2021/04/02 11:29:55;;;;;;;7.57;3.15;;;26.30;37.20;;;;;;3583199;40;20424;-75
2021/04/02 11:32:22;;;;;;;6.97;3.33;;;26.20;38.60;;;;;;3582994;40;20736;-74
2021/04/02 11:34:48;;;;;;;8.68;3.72;;;26.30;40.20;;;;;;3581910;40;20431;-73
2021/04/02 11:37:14;;;;;;;8.50;3.40;;;26.40;38.10;;;;;;3583146;40;20517;-73
2021/04/02 11:39:40;;;;;;;12.45;3.75;;;26.40;36.80;;;;;;3582634;40;20427;-73
2021/04/02 11:42:07;;;;;;;9.02;3.80;;;26.50;36.30;;;;;;3583639;40;20429;-74
2021/04/02 11:44:34;;;;;;;9.10;3.22;;;26.60;36.10;;;;;;3584066;40;20429;-74
2021/04/02 11:47:00;;;;;;;9.55;3.53;;;26.40;38.60;;;;;;3583640;40;20405;-75
2021/04/02 11:49:27;;;;;;;11.95;4.28;;;26.60;39.00;;;;;;3585578;40;20405;-75
2021/04/02 11:51:53;;;;;;;10.75;4.57;;;;;;;;;;3585720;40;20438;-74
2021/04/02 11:54:19;;;;;;;8.77;4.72;;;;;;;;;;3584806;40;20494;-74
2021/04/02 11:56:47;;;;;;;11.40;4.93;;;;;;;;;;3585155;40;20760;-74
2021/04/02 11:59:13;;;;;;;11.82;4.40;;;;;;;;;;3585210;40;20449;-74
2021/04/02 12:01:40;;;;;;;11.63;4.38;;;;;;;;;;3585882;40;20416;-73
2021/04/02 12:04:09;;;;;;;8.07;4.47;;;;;;;;;;3584349;40;20439;-74
2021/04/02 12:06:35;;;;;;;8.88;4.07;;;26.80;36.50;;;;;;3585348;40;20394;-74
2021/04/02 12:09:01;;;;;;;9.52;4.47;;;27.10;36.60;;;;;;3583621;40;20421;-73
2021/04/02 12:11:27;;;;;;;9.35;4.78;;;26.90;36.50;;;;;;3582557;40;20441;-75
2021/04/02 12:13:53;;;;;;;8.50;4.25;;;26.70;37.60;;;;;;3583459;40;20413;-73
2021/04/02 12:16:19;;;;;;;10.63;4.43;;;26.50;36.20;;;;;;3584110;40;20437;-74
2021/04/02 12:18:46;;;;;;;10.48;3.85;;;26.40;35.80;;;;;;3581378;40;20424;-74
2021/04/02 12:21:12;;;;;;;9.45;4.05;;;26.60;37.20;;;;;;3586743;40;20445;-74
2021/04/02 12:23:38;;;;;;;8.18;4.35;;;;;;;;;;3585094;40;20797;-74
2021/04/02 12:26:04;;;;;;;8.95;5.00;;;;;;;;;;3582623;40;20433;-73
2021/04/02 12:28:32;;;;;;;11.27;5.45;;;;;;;;;;3584568;40;20399;-74
2021/04/02 12:30:59;;;;;;;11.25;5.22;;;;;;;;;;3586440;40;20530;-74
2021/04/02 12:33:25;;;;;;;13.67;5.20;;;;;;;;;;3587126;40;20421;-74
2021/04/02 12:35:52;;;;;;;13.43;6.33;;;;;;;;;;3589552;40;20662;-72
2021/04/02 12:38:18;;;;;;;14.40;7.60;;;;;;;;;;3586960;40;20812;-73
2021/04/02 12:40:45;;;;;;;11.23;6.45;;;;;;;;;;3587494;40;20586;-73
2021/04/02 12:43:11;;;;;;;11.17;6.17;;;26.80;36.60;;;;;;3580088;40;20417;-73
2021/04/02 12:45:37;;;;;;;10.70;5.75;;;27.00;35.50;;;;;;3581606;40;20396;-72
2021/04/02 12:48:03;;;;;;;11.25;6.22;;;27.00;36.10;;;;;;3585355;40;20536;-74
2021/04/02 12:50:29;;;;;;;12.98;6.28;;;26.80;35.60;;;;;;3585254;40;20424;-74
2021/04/02 12:52:56;;;;;;;10.70;5.72;;;26.40;36.20;;;;;;3585458;40;20402;-74
2021/04/02 12:55:24;;;;;;;9.80;5.68;;;26.50;36.30;;;;;;3588381;40;20423;-75
2021/04/02 12:57:50;;;;;;;10.88;4.70;;;26.40;35.40;;;;;;3586502;40;20401;-73
2021/04/02 13:00:18;;;;;;;9.60;5.05;;;26.40;35.50;;;;;;3585497;40;20717;-75
2021/04/02 13:02:44;;;;;;;8.43;4.80;;;26.70;35.20;;;;;;3584952;40;20833;-74
2021/04/02 13:05:11;;;;;;;10.70;4.80;;;;;;;;;;3586024;40;20437;-74
2021/04/02 13:07:38;;;;;;;10.27;5.07;;;;;;;;;;3587016;40;20774;-74
2021/04/02 13:10:06;;;;;;;9.50;4.80;;;;;;;;;;3580447;40;20403;-73
2021/04/02 13:12:32;;;;;;;9.23;4.80;;;27.00;34.80;;;;;;3587231;40;20436;-75
2021/04/02 13:14:58;;;;;;;13.18;5.65;;;;;;;;;;3582575;40;20889;-74
2021/04/02 13:17:24;;;;;;;9.52;5.10;;;;;;;;;;3579687;32;20409;-73
2021/04/02 13:19:50;;;;;;;7.95;4.60;;;;;;;;;;3553422;40;20419;-74
2021/04/02 13:22:16;;;;;;;12.32;5.20;;;27.90;34.70;;;;;;3552124;40;20902;-74
2021/04/02 13:24:43;;;;;;;11.77;5.20;;;;;;;;;;3557634;40;20545;-73
2021/04/02 13:27:10;;;;;;;8.60;4.25;;;;;;;;;;3547927;40;20432;-73
2021/04/02 13:29:36;;;;;;;7.22;4.43;;;;;;;;;;3556378;40;20433;-75
2021/04/02 13:32:03;;;;;;;8.35;3.88;;;;;;;;;;3542993;40;20752;-73
2021/04/02 13:34:29;;;;;;;8.03;3.63;;;;;;;;;;3542685;40;20533;-75
2021/04/02 13:36:55;;;;;;;13.57;4.77;;;;;;;;;;3547581;40;20442;-74
2021/04/02 13:39:21;;;;;;;6.97;3.97;;;;;;;;;;3556964;40;20418;-73
2021/04/02 13:41:47;;;;;;;5.13;3.63;;;;;;;;;;3556510;40;20423;-74
2021/04/02 13:44:14;;;;;;;9.67;3.87;;;;;;;;;;3554367;40;20460;-73
2021/04/02 13:46:44;;;;;;;5.22;3.42;;;;;;;;;;3556904;40;20407;-73
2021/04/02 13:49:10;;;;;;;8.37;3.97;;;;;;;;;;3552547;40;20804;-74
2021/04/02 13:51:36;;;;;;;6.50;3.20;;;;;;;;;;3552613;40;20411;-74
2021/04/02 13:54:03;;;;;;;13.43;4.80;;;;;;;;;;3542322;32;20454;-75
2021/04/02 13:56:31;;;;;;;6.53;3.78;;;;;;;;;;3566289;40;20417;-75
2021/04/02 13:58:57;;;;;;;6.47;3.90;;;;;;;;;;3567166;40;20416;-73
2021/04/02 14:01:24;;;;;;;8.52;4.13;;;;;;;;;;3564467;40;20419;-73
2021/04/02 14:03:50;;;;;;;9.25;3.67;;;;;;;;;;3564930;40;20792;-75
2021/04/02 14:06:17;;;;;;;6.43;4.03;;;;;;;;;;3552852;40;20920;-73
2021/04/02 14:08:43;;;;;;;7.83;3.47;;;;;;;;;;3547864;40;20902;-74
2021/04/02 14:11:10;;;;;;;8.83;3.83;;;;;;;;;;3553237;32;20452;-74
2021/04/02 14:13:36;;;;;;;12.45;4.25;;;;;;;;;;3557040;40;20415;-75
2021/04/02 14:16:02;;;;;;;7.65;3.88;;;;;;;;;;3542444;40;20517;-73
2021/04/02 14:18:29;;;;;;;8.32;3.50;;;;;;;;;;3556263;40;20450;-74
2021/04/02 14:20:55;;;;;;;6.60;3.35;;;;;;;;;;3547954;40;20436;-74
2021/04/02 14:23:21;;;;;;;8.88;3.47;;;27.90;34.20;;;;;;3545893;40;20763;-74
2021/04/02 14:25:47;;;;;;;12.75;4.10;;;;;;;;;;3553428;40;20495;-74